createdAt,value
2022-12-18T02:48:51.763Z,61.10
2022-12-18T02:55:24.415Z,61.50
2022-12-18T02:58:14.243Z,61.50
2022-12-18T03:01:17.747Z,61.70
2022-12-18T03:04:38.884Z,61.50
2022-12-18T03:07:48.430Z,61.40
2022-12-18T03:14:11.570Z,61.40
2022-12-18T03:23:19.336Z,61.40
2022-12-18T03:29:35.837Z,61.90
2022-12-18T03:32:32.556Z,61.20
2022-12-18T03:35:24.196Z,61.10
2022-12-18T03:37:56.986Z,61.10
2022-12-18T03:40:53.581Z,61.40
2022-12-18T03:44:00.553Z,61.20
2022-12-18T03:46:50.970Z,61.10
2022-12-18T03:49:49.986Z,61.50
2022-12-18T03:52:53.077Z,61.30
2022-12-18T03:55:43.989Z,61.20
2022-12-18T03:58:34.087Z,61.10
2022-12-18T04:01:47.581Z,60.70
2022-12-18T04:04:52.804Z,61.00
2022-12-18T04:07:53.199Z,60.30
2022-12-18T04:10:56.593Z,60.20
2022-12-18T04:24:29.260Z,59.80
2022-12-18T04:27:13.397Z,60.10
2022-12-18T04:29:52.132Z,60.20
2022-12-18T04:32:39.570Z,60.10
2022-12-18T04:35:11.828Z,60.00
2022-12-18T04:41:15.451Z,59.80
2022-12-18T09:04:26.444Z,60.70
2022-12-18T09:07:50.895Z,60.60
2022-12-18T09:35:04.207Z,61.60
2022-12-18T10:03:28.157Z,63.50
2022-12-18T12:09:17.115Z,59.50
2022-12-18T12:13:10.090Z,59.10
2022-12-18T12:16:48.611Z,58.90
2022-12-18T12:23:21.530Z,56.40
2022-12-18T12:40:52.396Z,53.10
2022-12-18T12:44:09.927Z,52.30
2022-12-18T12:47:35.241Z,52.20
2022-12-18T12:54:21.370Z,50.90
2022-12-18T12:57:32.915Z,51.70
2022-12-18T13:11:24.867Z,52.10
2022-12-18T13:18:15.466Z,52.80
2022-12-18T13:25:00.825Z,53.60
2022-12-18T13:28:21.051Z,53.80
2022-12-18T13:37:57.378Z,54.50
2022-12-18T13:42:12.631Z,54.60
2022-12-18T13:44:40.907Z,55.10
2022-12-18T13:47:55.471Z,55.00
2022-12-18T13:50:35.981Z,55.30
2022-12-18T13:53:30.447Z,55.60
2022-12-18T13:56:31.639Z,55.50
2022-12-18T13:59:28.908Z,55.70
2022-12-18T14:02:02.760Z,56.00
2022-12-18T14:04:46.170Z,55.80
2022-12-18T14:11:37.703Z,55.70
2022-12-18T14:18:03.558Z,55.90
2022-12-18T14:33:31.401Z,56.30
2022-12-18T14:36:07.810Z,56.30
2022-12-18T14:38:44.713Z,56.70
2022-12-18T14:41:28.285Z,56.70
2022-12-18T14:47:41.210Z,56.80
2022-12-18T14:51:24.760Z,57.10
2022-12-18T14:54:21.748Z,57.10
2022-12-18T14:57:16.166Z,57.00
2022-12-18T15:00:04.965Z,57.60
2022-12-18T15:02:52.641Z,57.50
2022-12-18T15:05:39.342Z,57.80
2022-12-18T15:08:42.839Z,57.60
2022-12-18T15:12:15.798Z,57.60
2022-12-18T15:15:16.613Z,57.70
2022-12-18T15:18:03.872Z,58.20
2022-12-18T15:20:48.673Z,58.20
2022-12-18T15:23:40.600Z,58.20
2022-12-18T15:26:41.893Z,58.30
2022-12-18T15:29:53.751Z,58.50
2022-12-18T15:32:56.313Z,58.30
2022-12-18T15:36:16.467Z,58.60
2022-12-18T15:43:30.429Z,58.70
2022-12-18T15:46:30.101Z,58.70
2022-12-18T15:49:27.173Z,59.30
2022-12-18T15:55:48.267Z,59.00
2022-12-18T15:58:36.168Z,59.10
2022-12-18T16:15:51.349Z,59.60
2022-12-18T16:19:11.830Z,59.90
2022-12-18T16:23:18.990Z,60.10
